Time;durP1;ratioP1;P1;durP2;ratioP2;P2;SDS_P1;SDS_P2;PMS_P1;PMS_P2;Temp;Humidity;BMP_temperature;BMP_pressure;BME280_temperature;BME280_humidity;BME280_pressure;Samples;Min_cycle;Max_cycle;Signal;HPM_P1;HPM_P2
2021/08/04 00:00:01;;;;;;;6.03;5.20;;;;;;;16.57;77.97;98484.63;262071;1090;25353;-72
2021/08/04 00:05:14;;;;;;;4.90;4.20;;;;;;;16.52;77.85;98471.31;262023;1090;22969;-72
2021/08/04 00:10:21;;;;;;;5.40;4.43;;;;;;;16.48;77.73;98470.40;262041;1090;22798;-72
2021/08/04 00:15:31;;;;;;;5.90;4.50;;;;;;;16.45;78.29;98471.86;261963;1090;23301;-73
2021/08/04 00:20:50;;;;;;;4.60;4.10;;;;;;;16.46;78.58;98469.96;261918;1088;22909;-72
2021/08/04 00:25:54;;;;;;;4.70;4.20;;;;;;;16.48;78.62;98470.40;262149;1090;23368;-73
2021/08/04 00:31:59;;;;;;;6.07;4.60;;;;;;;16.52;78.88;98460.50;262159;1090;22852;-73
2021/08/04 00:38:46;;;;;;;;;;;;;;;;;;;;;
2021/08/04 00:44:18;;;;;;;6.00;5.40;;;;;;;16.56;79.03;98451.40;261982;1090;22780;-72
2021/08/04 00:49:22;;;;;;;7.10;5.00;;;;;;;16.56;78.90;98451.40;262165;1090;22783;-73
2021/08/04 00:54:28;;;;;;;6.67;4.27;;;;;;;16.54;79.18;98485.30;262111;1090;22937;-72
2021/08/04 00:59:32;;;;;;;6.30;5.10;;;;;;;16.48;80.18;98524.47;262052;1090;23563;-72
2021/08/04 01:04:49;;;;;;;5.10;4.25;;;;;;;16.35;79.71;98512.84;261926;1088;22886;-72
2021/08/04 01:10:15;;;;;;;7.05;5.10;;;;;;;16.33;79.94;98515.09;262055;1090;24879;-74
2021/08/04 01:15:21;;;;;;;4.73;4.23;;;;;;;16.33;79.93;98510.47;261922;1088;22960;-73
2021/08/04 01:20:28;;;;;;;5.85;3.85;;;;;;;16.32;79.85;98500.77;261900;1089;22865;-73
2021/08/04 01:25:49;;;;;;;;;;;;;;;16.35;79.88;98493.91;261926;1089;22820;-73
2021/08/04 01:30:59;;;;;;;4.80;4.03;;;;;;;16.31;79.86;98487.59;261864;1088;22271;-74
2021/08/04 01:36:06;;;;;;;9.90;4.50;;;;;;;16.21;79.77;98476.06;262014;1090;24116;-72
2021/08/04 01:41:11;;;;;;;4.80;3.90;;;;;;;16.18;79.86;98463.23;262010;1090;22835;-72
2021/08/04 01:46:15;;;;;;;4.10;3.70;;;;;;;16.15;79.77;98447.69;261848;1089;23360;-72
2021/08/04 01:51:19;;;;;;;5.60;3.90;;;;;;;16.17;80.30;98444.65;261829;1090;26306;-72
2021/08/04 01:56:25;;;;;;;6.60;4.50;;;;;;;16.23;80.58;98429.82;261797;1090;22833;-73
2021/08/04 02:01:31;;;;;;;4.47;3.70;;;;;;;16.32;80.77;98421.61;261867;1090;22831;-74
2021/08/04 02:06:59;;;;;;;5.05;4.00;;;;;;;16.38;80.73;98429.17;261795;1090;22992;-72
2021/08/04 02:12:10;;;;;;;4.10;3.70;;;;;;;16.38;80.46;98423.77;261624;1091;22962;-72
2021/08/04 02:17:22;;;;;;;3.40;3.10;;;;;;;16.41;80.07;98422.28;261813;1089;22779;-72
2021/08/04 02:22:31;;;;;;;4.90;3.70;;;;;;;16.45;80.11;98423.19;261990;1090;22877;-73
2021/08/04 02:27:38;;;;;;;5.75;3.75;;;;;;;16.44;80.13;98421.64;261843;1090;22909;-72
2021/08/04 02:32:43;;;;;;;7.25;4.55;;;;;;;16.38;80.25;98417.55;262005;1089;22798;-72
2021/08/04 02:37:49;;;;;;;6.70;3.77;;;;;;;16.28;79.67;98432.29;261855;1090;27594;-72
2021/08/04 02:42:55;;;;;;;5.60;3.45;;;;;;;16.17;79.95;98437.34;261808;1090;27529;-73
2021/08/04 02:47:59;;;;;;;5.60;3.50;;;;;;;16.20;80.39;98438.57;261806;1090;22792;-72
2021/08/04 02:53:08;;;;;;;4.50;3.47;;;;;;;16.21;81.07;98446.34;261824;1089;22754;-73
2021/08/04 02:58:36;;;;;;;6.85;4.50;;;;;;;16.24;80.89;98436.78;261831;1089;22945;-70
2021/08/04 03:03:39;;;;;;;4.90;4.00;;;;;;;16.27;80.80;98435.33;261815;1090;22866;-72
2021/08/04 03:08:43;;;;;;;6.50;4.45;;;;;;;16.30;80.92;98432.76;261759;1090;22914;-73
2021/08/04 03:13:47;;;;;;;7.05;4.55;;;;;;;16.37;81.50;98424.11;261868;1090;25967;-72
2021/08/04 03:18:52;;;;;;;4.20;3.70;;;;;;;16.34;80.87;98413.94;261838;1090;22806;-72
2021/08/04 03:23:56;;;;;;;5.80;3.70;;;;;;;16.32;80.66;98424.31;262025;1089;25954;-72
2021/08/04 03:29:04;;;;;;;3.20;2.90;;;;;;;16.29;80.60;98435.80;261748;1090;24071;-73
2021/08/04 03:48:13;;;;;;;3.90;2.30;;;;;;;15.73;80.30;98464.70;262122;1090;22876;-72
2021/08/04 03:53:17;;;;;;;3.27;2.63;;;;;;;15.70;80.68;98462.66;261945;1090;22803;-72
2021/08/04 03:58:21;;;;;;;2.80;2.10;;;;;;;15.68;80.77;98461.41;261830;1089;25983;-73
2021/08/04 04:03:24;;;;;;;4.25;2.70;;;;;;;15.63;80.95;98475.13;261943;1089;22811;-72
2021/08/04 04:08:28;;;;;;;4.03;2.30;;;;;;;15.60;81.13;98473.06;261859;1090;22822;-72
2021/08/04 04:13:32;;;;;;;2.80;2.45;;;;;;;15.65;81.56;98468.26;261857;1090;22782;-71
2021/08/04 04:18:37;;;;;;;2.25;2.05;;;;;;;15.72;81.38;98456.94;261829;1090;22779;-74
2021/08/04 04:23:40;;;;;;;2.90;2.50;;;;;;;15.75;81.56;98472.47;262005;1090;22808;-71
2021/08/04 04:28:44;;;;;;;3.95;2.25;;;;;;;15.82;81.24;98488.99;261876;1089;22808;-72
2021/08/04 04:33:48;;;;;;;3.67;2.43;;;;;;;15.90;81.30;98477.30;261833;1090;22786;-73
2021/08/04 04:38:52;;;;;;;2.40;1.90;;;;;;;16.08;81.37;98490.67;261965;1090;25877;-72
2021/08/04 04:43:59;;;;;;;5.07;2.10;;;;;;;16.12;80.95;98499.70;261829;1090;22911;-72
2021/08/04 04:49:03;;;;;;;2.45;1.90;;;;;;;16.17;81.10;98487.88;261782;1090;22782;-75
2021/08/04 04:54:06;;;;;;;1.87;1.70;;;;;;;16.24;80.80;98502.45;261769;1090;28490;-72
2021/08/04 04:59:10;;;;;;;2.60;2.40;;;;;;;16.30;80.57;98502.22;261930;1089;24220;-72
2021/08/04 05:04:26;;;;;;;3.85;2.60;;;;;;;16.39;80.91;98497.53;261755;1090;22838;-73
2021/08/04 05:09:49;;;;;;;4.03;2.67;;;;;;;16.46;80.04;98516.70;261745;1090;23298;-72
2021/08/04 05:14:53;;;;;;;3.10;2.40;;;;;;;16.47;80.16;98507.47;261894;1089;22783;-72
2021/08/04 05:26:30;;;;;;;4.70;2.20;;;;;;;16.66;80.00;98509.67;261718;1090;24330;-72
2021/08/04 05:31:34;;;;;;;3.05;2.20;;;;;;;16.81;79.72;98516.33;261851;1090;22803;-72
2021/08/04 05:36:38;;;;;;;3.35;2.55;;;;;;;17.04;80.00;98518.63;262239;1088;26502;-73
2021/08/04 05:41:42;;;;;;;5.10;2.50;;;;;;;17.33;79.15;98512.20;262431;1090;22793;-71
2021/08/04 05:46:58;;;;;;;4.50;2.50;;;;;;;17.62;78.64;98513.86;262473;1090;23638;-71
2021/08/04 05:52:02;;;;;;;3.60;2.45;;;;;;;17.91;77.53;98511.24;262631;1089;22787;-71
2021/08/04 05:57:06;;;;;;;2.70;2.00;;;;;;;18.17;77.29;98508.08;262901;1088;22864;-71
2021/08/04 06:02:09;;;;;;;8.00;3.90;;;;;;;18.36;76.04;98517.51;262681;1090;22820;-71
2021/08/04 06:07:15;;;;;;;2.60;1.90;;;;;;;18.52;76.05;98518.30;262969;1090;23096;-71
2021/08/04 06:12:18;;;;;;;2.80;2.15;;;;;;;18.63;75.27;98511.27;262779;1092;22847;-72
2021/08/04 06:17:23;;;;;;;3.10;1.97;;;;;;;18.78;75.13;98520.53;262395;1090;22782;-73
2021/08/04 06:22:27;;;;;;;2.53;1.90;;;;;;;18.96;74.50;98517.52;262433;1089;22853;-73
2021/08/04 06:27:31;;;;;;;3.75;2.30;;;;;;;19.04;74.36;98508.42;262456;1090;23014;-72
2021/08/04 06:32:37;;;;;;;4.13;2.77;;;;;;;19.33;74.48;98498.20;262525;1089;24054;-73
2021/08/04 06:51:36;;;;;;;2.00;1.73;;;;;;;20.25;71.81;98507.91;262227;1090;23476;-72
2021/08/04 06:56:48;;;;;;;2.65;1.95;;;;;;;20.43;70.13;98505.53;262387;1090;22788;-72
2021/08/04 07:07:22;;;;;;;2.80;1.90;;;;;;;20.63;69.18;98520.64;262408;1090;22790;-73
2021/08/04 07:12:26;;;;;;;3.98;2.05;;;;;;;20.97;69.23;98525.52;262280;1088;22823;-73
2021/08/04 07:17:48;;;;;;;2.20;1.90;;;;;;;21.17;67.96;98531.70;262251;1090;22790;-74
2021/08/04 07:22:51;;;;;;;5.18;3.05;;;;;;;21.42;66.53;98528.55;262219;1090;22801;-72
2021/08/04 07:27:55;;;;;;;3.33;2.45;;;;;;;21.37;66.77;98527.70;262330;1088;22815;-74
2021/08/04 07:32:59;;;;;;;3.83;2.55;;;;;;;21.46;65.87;98538.37;262475;1090;22817;-72
2021/08/04 07:38:03;;;;;;;3.10;2.53;;;;;;;21.51;65.36;98532.58;262485;1090;22811;-71
2021/08/04 07:43:10;;;;;;;2.83;2.40;;;;;;;21.76;66.61;98525.95;262652;1089;23436;-72
2021/08/04 07:48:34;;;;;;;3.85;2.23;;;;;;;21.98;65.10;98524.27;262633;1090;22790;-72
2021/08/04 07:53:54;;;;;;;3.23;2.38;;;;;;;22.16;64.25;98536.20;262360;1089;25262;-72
2021/08/04 07:59:02;;;;;;;4.23;2.60;;;;;;;22.24;63.93;98528.86;262502;1090;22838;-74
2021/08/04 08:04:16;;;;;;;4.45;2.60;;;;;;;22.16;63.58;98535.39;262519;1090;24464;-73
2021/08/04 08:09:24;;;;;;;3.03;2.35;;;;;;;21.94;63.05;98535.14;262564;1090;22910;-72
2021/08/04 08:14:31;;;;;;;2.73;2.20;;;;;;;21.87;63.32;98537.78;262757;1088;22874;-72
2021/08/04 08:19:36;;;;;;;2.63;2.28;;;;;;;21.92;63.68;98542.89;262797;1090;22782;-72
2021/08/04 08:24:39;;;;;;;2.65;2.30;;;;;;;21.99;63.52;98545.73;262531;1090;26258;-72
2021/08/04 08:29:43;;;;;;;2.43;2.23;;;;;;;21.95;62.33;98539.45;262257;1089;22856;-72
2021/08/04 08:34:47;;;;;;;6.20;3.58;;;;;;;21.93;63.35;98539.02;262195;1090;22937;-72
2021/08/04 08:39:52;;;;;;;2.50;2.10;;;;;;;22.10;63.44;98547.80;262377;1090;22949;-73
2021/08/04 08:44:59;;;;;;;4.15;2.90;;;;;;;22.37;63.43;98551.25;262451;1090;22719;-72
2021/08/04 08:50:03;;;;;;;2.95;2.58;;;;;;;22.43;62.44;98554.43;262470;1090;22797;-72
2021/08/04 08:55:11;;;;;;;4.03;2.90;;;;;;;22.49;62.57;98555.69;262668;1090;22939;-72
2021/08/04 09:00:21;;;;;;;4.45;2.10;;;;;;;22.35;61.95;98559.81;264082;1090;26343;-71
2021/08/04 09:05:25;;;;;;;2.58;2.00;;;;;;;22.27;61.78;98557.35;262848;1090;22943;-72
2021/08/04 09:10:34;;;;;;;2.45;1.65;;;;;;;22.37;62.01;98557.52;262292;1090;25983;-71
2021/08/04 09:15:42;;;;;;;2.00;1.80;;;;;;;22.50;60.00;98543.62;262202;1089;27141;-71
2021/08/04 09:20:52;;;;;;;1.78;1.68;;;;;;;22.43;59.79;98540.78;262190;1089;22812;-71
2021/08/04 09:26:28;;;;;;;2.05;1.80;;;;;;;22.43;60.05;98551.70;262207;1090;22761;-71
2021/08/04 09:31:44;;;;;;;2.08;1.58;;;;;;;22.61;59.83;98560.08;261959;1090;22781;-71
2021/08/04 09:37:01;;;;;;;2.10;1.90;;;;;;;22.58;59.51;98558.11;262229;1090;22930;-71
2021/08/04 09:42:37;;;;;;;1.10;1.05;;;;;;;22.30;58.64;98571.05;262151;1090;22963;-71
2021/08/04 09:54:36;;;;;;;1.30;1.20;;;;;;;21.72;59.98;98576.91;262048;1090;22788;-71
2021/08/04 10:00:01;;;;;;;2.08;1.78;;;;;;;21.76;60.00;98569.57;262153;1089;22747;-71
2021/08/04 10:05:42;;;;;;;2.28;2.08;;;;;;;21.87;60.27;98570.50;262276;1090;22795;-72
2021/08/04 10:10:52;;;;;;;2.05;1.73;;;;;;;21.96;60.13;98562.81;262163;1090;23644;-71
2021/08/04 10:15:58;;;;;;;4.15;2.00;;;;;;;21.97;60.21;98558.94;262058;1090;22790;-71
2021/08/04 10:21:11;;;;;;;1.98;1.63;;;;;;;22.01;59.65;98562.50;262089;1090;22876;-72
2021/08/04 10:26:15;;;;;;;2.23;2.03;;;;;;;21.94;59.66;98576.05;262064;1089;24359;-72
2021/08/04 10:31:21;;;;;;;1.80;1.68;;;;;;;21.86;59.85;98566.20;262218;1089;27269;-71
2021/08/04 10:36:35;;;;;;;3.50;1.93;;;;;;;21.94;60.24;98565.14;262322;1090;22879;-71
2021/08/04 10:41:41;;;;;;;3.08;1.88;;;;;;;22.10;59.72;98561.44;262613;1090;22935;-71
2021/08/04 10:46:48;;;;;;;2.58;1.90;;;;;;;22.12;59.68;98561.84;262091;1090;25890;-70
2021/08/04 10:51:54;;;;;;;3.53;2.20;;;;;;;22.17;59.41;98566.98;262111;1090;22802;-71
2021/08/04 10:57:01;;;;;;;2.75;1.88;;;;;;;22.13;59.46;98563.42;262143;1089;23251;-71
2021/08/04 11:02:13;;;;;;;2.95;2.25;;;;;;;22.26;58.63;98553.84;261981;1090;22779;-71
2021/08/04 11:07:30;;;;;;;3.58;2.80;;;;;;;22.21;59.22;98565.86;262202;1090;22787;-71
2021/08/04 11:12:36;;;;;;;5.03;2.73;;;;;;;21.97;59.03;98567.13;262126;1090;22828;-71
2021/08/04 11:18:01;;;;;;;3.33;2.90;;;;;;;21.72;59.11;98566.01;262120;1089;22848;-70
2021/08/04 11:23:06;;;;;;;3.30;2.83;;;;;;;21.66;60.25;98560.09;262324;1090;22800;-71
2021/08/04 11:28:12;;;;;;;2.98;2.68;;;;;;;21.83;60.72;98561.48;262012;1090;23349;-71
2021/08/04 11:33:18;;;;;;;4.53;2.95;;;;;;;21.96;60.35;98554.63;262189;1090;25851;-71
2021/08/04 11:38:54;;;;;;;4.18;3.00;;;;;;;22.43;60.67;98557.16;262012;1090;22772;-71
2021/08/04 11:44:23;;;;;;;3.40;3.10;;;;;;;22.89;59.68;98563.11;262065;1090;22818;-71
2021/08/04 11:49:34;;;;;;;3.30;3.00;;;;;;;22.99;58.86;98564.36;262735;1089;26009;-71
2021/08/04 11:54:49;;;;;;;4.55;3.90;;;;;;;23.14;58.94;98554.38;262054;1090;28031;-71
2021/08/04 11:59:53;;;;;;;4.33;3.38;;;;;;;23.09;58.13;98556.66;261965;1090;22940;-70
2021/08/04 12:05:00;;;;;;;4.28;3.08;;;;;;;22.86;57.46;98565.79;262056;1090;24427;-71
2021/08/04 12:10:07;;;;;;;4.28;3.50;;;;;;;22.60;57.86;98556.58;262069;1089;22790;-71
2021/08/04 12:15:24;;;;;;;3.43;3.13;;;;;;;22.49;58.52;98559.19;262229;1090;22809;-71
2021/08/04 12:20:29;;;;;;;4.23;3.78;;;;;;;22.31;58.96;98558.18;262206;1090;22767;-71
2021/08/04 12:25:36;;;;;;;3.10;2.90;;;;;;;22.25;59.09;98555.00;262169;1090;26069;-71
2021/08/04 12:30:44;;;;;;;4.13;2.83;;;;;;;22.50;59.18;98547.13;262002;1090;22940;-70
2021/08/04 12:35:50;;;;;;;3.58;3.03;;;;;;;22.69;58.89;98543.42;262062;1090;22809;-71
2021/08/04 12:41:20;;;;;;;3.65;3.35;;;;;;;22.81;58.71;98539.63;261967;1089;22817;-71
2021/08/04 12:46:29;;;;;;;3.35;3.05;;;;;;;22.70;58.57;98542.24;262115;1090;22763;-71
2021/08/04 12:51:38;;;;;;;3.33;2.75;;;;;;;22.84;58.35;98530.67;262422;1089;22812;-71
2021/08/04 12:57:17;;;;;;;3.83;3.40;;;;;;;22.79;58.31;98527.50;262122;1090;27253;-70
2021/08/04 13:02:21;;;;;;;;;;;;;;;23.12;57.89;98523.14;262446;1090;22835;-71
2021/08/04 13:07:44;;;;;;;3.00;2.80;;;;;;;23.34;57.61;98511.19;262385;1090;24327;-70
2021/08/04 13:12:56;;;;;;;3.55;2.43;;;;;;;23.54;56.81;98510.92;262198;1090;22846;-70
2021/08/04 13:18:02;;;;;;;2.80;2.60;;;;;;;23.71;56.41;98493.84;262120;1089;24264;-71
2021/08/04 13:23:14;;;;;;;3.63;2.97;;;;;;;24.00;56.72;98498.67;262000;1090;22809;-71
2021/08/04 13:28:23;;;;;;;4.05;2.80;;;;;;;24.25;56.24;98496.02;262391;1090;24319;-71
2021/08/04 13:33:32;;;;;;;2.98;2.78;;;;;;;24.56;56.18;98485.51;262065;1090;22780;-71
2021/08/04 13:38:42;;;;;;;2.80;2.50;;;;;;;24.69;55.28;98488.67;262058;1088;25874;-70
2021/08/04 13:43:45;;;;;;;2.90;2.60;;;;;;;24.70;54.57;98498.47;262313;1088;25877;-70
2021/08/04 13:49:00;;;;;;;3.50;3.20;;;;;;;24.75;54.44;98501.59;262149;1088;24383;-71
2021/08/04 13:54:07;;;;;;;4.10;3.70;;;;;;;24.51;54.08;98499.58;260778;1090;22960;-69
2021/08/04 13:59:11;;;;;;;3.68;3.38;;;;;;;24.32;53.90;98498.77;262518;1089;22869;-70
2021/08/04 14:04:15;;;;;;;4.18;3.00;;;;;;;24.04;53.69;98496.73;260702;1089;22784;-70
2021/08/04 14:09:18;;;;;;;3.35;3.05;;;;;;;23.86;54.30;98499.37;260438;1090;23084;-70
2021/08/04 14:14:24;;;;;;;3.40;3.10;;;;;;;23.88;53.99;98507.98;260818;1088;25877;-73
2021/08/04 14:19:39;;;;;;;4.80;4.28;;;;;;;23.90;54.00;98511.91;261812;1090;22786;-71
2021/08/04 14:24:59;;;;;;;3.40;2.73;;;;;;;24.08;53.73;98500.27;260891;1090;22793;-69
2021/08/04 14:30:04;;;;;;;3.73;2.93;;;;;;;24.13;53.66;98505.34;261864;1090;22779;-68
2021/08/04 14:35:09;;;;;;;2.95;2.75;;;;;;;24.14;53.33;98504.19;261908;1090;22840;-70
2021/08/04 14:40:15;;;;;;;2.80;2.60;;;;;;;23.84;53.17;98494.28;261025;1090;25896;-71
2021/08/04 14:45:19;;;;;;;2.53;2.33;;;;;;;23.66;53.54;98491.46;260953;1090;22798;-70
2021/08/04 14:50:24;;;;;;;2.80;2.50;;;;;;;23.48;53.38;98487.86;261036;1090;24525;-71
2021/08/04 14:55:28;;;;;;;1.95;1.80;;;;;;;23.38;53.62;98481.16;260882;1090;23730;-69
2021/08/04 15:00:34;;;;;;;2.00;1.78;;;;;;;23.45;54.03;98473.00;261775;1090;22813;-70
2021/08/04 15:05:39;;;;;;;1.53;1.43;;;;;;;23.46;52.98;98473.77;261863;1089;25877;-71
2021/08/04 15:10:47;;;;;;;2.10;1.90;;;;;;;23.44;52.24;98476.13;261923;1089;22830;-70
2021/08/04 15:15:52;;;;;;;1.60;1.50;;;;;;;23.27;52.64;98470.16;260986;1090;25993;-70
2021/08/04 15:20:59;;;;;;;1.53;1.43;;;;;;;23.48;53.20;98482.39;261903;1090;26453;-70
2021/08/04 15:26:02;;;;;;;1.40;1.30;;;;;;;23.63;52.68;98484.03;261818;1090;27099;-70
2021/08/04 15:31:16;;;;;;;2.15;1.70;;;;;;;23.64;52.49;98473.88;261849;1090;27098;-70
2021/08/04 15:36:27;;;;;;;1.93;1.40;;;;;;;23.55;52.83;98471.49;261121;1090;22895;-69
2021/08/04 15:41:31;;;;;;;1.57;1.47;;;;;;;23.45;53.00;98466.73;260974;1089;25842;-70
2021/08/04 15:53:29;;;;;;;2.70;1.50;;;;;;;23.05;52.98;98459.05;260995;1090;22779;-70
2021/08/04 15:58:54;;;;;;;2.18;1.40;;;;;;;22.82;53.80;98439.36;261713;1090;26325;-70
2021/08/04 16:03:58;;;;;;;1.33;1.25;;;;;;;22.69;53.97;98447.06;261893;1090;26114;-70
2021/08/04 16:09:02;;;;;;;1.40;1.30;;;;;;;22.58;54.32;98447.00;261758;1090;22812;-70
2021/08/04 16:14:06;;;;;;;1.45;1.38;;;;;;;22.46;54.26;98452.73;262030;1090;22854;-70
2021/08/04 16:19:13;;;;;;;1.50;1.40;;;;;;;22.38;55.04;98440.95;261730;1090;22937;-70
2021/08/04 16:24:16;;;;;;;1.45;1.35;;;;;;;22.30;54.79;98442.81;260896;1090;22799;-71
2021/08/04 16:29:20;;;;;;;1.40;1.30;;;;;;;22.26;55.43;98441.19;260986;1089;22787;-69
2021/08/04 16:34:24;;;;;;;2.08;1.50;;;;;;;22.15;55.51;98452.79;261772;1090;22782;-70
2021/08/04 16:39:27;;;;;;;2.43;1.70;;;;;;;22.03;56.06;98442.94;261867;1090;22790;-69
2021/08/04 16:44:30;;;;;;;1.85;1.40;;;;;;;21.88;56.10;98450.16;261062;1090;22862;-70
2021/08/04 16:49:34;;;;;;;1.68;1.48;;;;;;;21.74;56.79;98438.30;261547;1090;25986;-70
2021/08/04 16:54:38;;;;;;;1.50;1.40;;;;;;;21.56;56.94;98438.88;260838;1090;26248;-70
2021/08/04 16:59:44;;;;;;;1.78;1.68;;;;;;;21.40;57.58;98446.41;260906;1089;24061;-69
2021/08/04 17:04:50;;;;;;;2.10;1.20;;;;;;;21.39;57.79;98445.61;261192;1090;22814;-70
2021/08/04 17:10:11;;;;;;;1.30;1.25;;;;;;;21.40;57.54;98430.84;260948;1090;22800;-71
2021/08/04 17:15:20;;;;;;;1.50;1.40;;;;;;;21.40;57.66;98433.56;261812;1090;22792;-70
2021/08/04 17:20:27;;;;;;;1.50;1.40;;;;;;;21.35;57.28;98431.95;261939;1090;22778;-71
2021/08/04 17:25:30;;;;;;;1.50;1.40;;;;;;;21.29;58.09;98435.36;261888;1090;22915;-70
2021/08/04 17:30:42;;;;;;;2.48;2.28;;;;;;;21.19;58.28;98432.11;261067;1089;25992;-70
2021/08/04 17:36:07;;;;;;;2.33;2.05;;;;;;;21.11;58.58;98422.29;262224;1090;22782;-69
2021/08/04 17:41:12;;;;;;;3.00;2.20;;;;;;;20.98;58.66;98426.36;261786;1090;22808;-70
2021/08/04 17:46:17;;;;;;;2.53;2.28;;;;;;;20.85;59.27;98429.28;261080;1090;22834;-68
2021/08/04 17:51:23;;;;;;;2.05;1.90;;;;;;;20.75;59.01;98434.55;261187;1090;22792;-70
2021/08/04 17:56:27;;;;;;;3.93;1.90;;;;;;;20.63;59.11;98433.56;262101;1090;24021;-69
2021/08/04 18:01:31;;;;;;;1.93;1.77;;;;;;;20.51;59.91;98425.61;261052;1090;24432;-70
2021/08/04 18:07:12;;;;;;;3.60;2.20;;;;;;;20.40;60.70;98425.42;260942;1090;22837;-70
2021/08/04 18:12:17;;;;;;;2.53;1.97;;;;;;;20.29;60.90;98425.23;261437;1090;24495;-70
2021/08/04 18:17:21;;;;;;;1.80;1.67;;;;;;;20.23;61.37;98432.13;261990;1090;23093;-70
2021/08/04 18:22:25;;;;;;;2.60;2.40;;;;;;;20.22;61.70;98433.27;261567;1089;22782;-71
2021/08/04 18:27:28;;;;;;;2.90;2.67;;;;;;;20.17;62.23;98445.23;261733;1090;25967;-70
2021/08/04 18:32:32;;;;;;;2.80;2.60;;;;;;;20.10;62.82;98449.73;261896;1090;26286;-69
2021/08/04 18:37:49;;;;;;;4.55;2.40;;;;;;;20.03;62.90;98449.61;260990;1090;22805;-69
2021/08/04 18:43:45;;;;;;;2.68;2.30;;;;;;;19.99;63.53;98449.53;260907;1090;22809;-70
2021/08/04 18:48:51;;;;;;;2.50;1.60;;;;;;;19.97;63.48;98455.33;260791;1089;22931;-70
2021/08/04 18:54:35;;;;;;;;;;;;;;;;;;;;;
2021/08/04 19:00:07;;;;;;;3.85;2.40;;;;;;;19.81;63.52;98449.17;261715;1089;22794;-70
2021/08/04 19:05:37;;;;;;;2.30;2.10;;;;;;;19.73;63.96;98452.89;260970;1090;22782;-68
2021/08/04 19:11:02;;;;;;;2.50;2.30;;;;;;;19.68;64.09;98447.73;260890;1089;24695;-70
2021/08/04 19:16:10;;;;;;;3.10;2.80;;;;;;;19.60;64.33;98444.87;261726;1088;22910;-69
2021/08/04 19:21:26;;;;;;;3.85;2.70;;;;;;;19.51;64.64;98438.06;260909;1089;22776;-70
2021/08/04 19:26:29;;;;;;;6.20;3.25;;;;;;;19.40;65.09;98443.27;261594;1090;22802;-71
2021/08/04 19:31:37;;;;;;;10.55;3.65;;;;;;;19.25;65.31;98434.81;261744;1090;22809;-69
2021/08/04 19:36:51;;;;;;;6.90;4.25;;;;;;;19.12;65.43;98436.84;260891;1090;22937;-70
2021/08/04 19:42:40;;;;;;;4.50;3.90;;;;;;;19.02;66.51;98434.67;260941;1090;22798;-69
2021/08/04 19:48:21;;;;;;;6.00;3.87;;;;;;;18.95;66.76;98415.52;260879;1090;22833;-70
2021/08/04 19:53:51;;;;;;;5.73;4.30;;;;;;;18.87;67.03;98417.27;261805;1090;27514;-69
2021/08/04 19:59:29;;;;;;;4.40;3.97;;;;;;;18.80;67.04;98417.08;260984;1088;22779;-70
2021/08/04 20:05:45;;;;;;;5.40;4.30;;;;;;;18.73;67.26;98409.58;261771;1090;22809;-70
2021/08/04 20:12:04;;;;;;;5.60;3.95;;;;;;;18.62;67.32;98403.89;260994;1090;22809;-70
2021/08/04 20:18:15;;;;;;;4.55;3.65;;;;;;;18.54;67.78;98404.84;260902;1090;25877;-70
2021/08/04 20:24:22;;;;;;;7.53;4.13;;;;;;;18.47;68.05;98407.39;261806;1089;22779;-69
2021/08/04 20:30:15;;;;;;;5.35;4.60;;;;;;;18.41;68.25;98401.44;260902;1090;26373;-71
2021/08/04 20:35:45;;;;;;;6.60;4.90;;;;;;;18.32;68.27;98408.17;260859;1090;22891;-68
2021/08/04 20:41:26;;;;;;;5.65;4.80;;;;;;;18.22;68.82;98406.76;260798;1088;22809;-70
2021/08/04 20:46:50;;;;;;;5.85;3.90;;;;;;;18.18;69.22;98408.59;261726;1089;26286;-69
2021/08/04 20:52:21;;;;;;;6.90;4.37;;;;;;;18.16;69.71;98411.65;260833;1090;22886;-72
2021/08/04 20:57:56;;;;;;;5.20;4.70;;;;;;;18.05;70.12;98405.94;261725;1090;23004;-68
2021/08/04 21:04:11;;;;;;;5.50;4.75;;;;;;;17.95;70.26;98403.74;260821;1089;27098;-72
2021/08/04 21:09:29;;;;;;;6.85;4.88;;;;;;;17.88;70.28;98396.17;261683;1093;24396;-68
2021/08/04 21:14:33;;;;;;;7.03;5.07;;;;;;;17.81;70.94;98395.18;260911;1090;22805;-71
2021/08/04 21:20:00;;;;;;;6.70;5.20;;;;;;;17.75;71.27;98400.06;260847;1092;22842;-68
2021/08/04 21:25:29;;;;;;;10.10;4.75;;;;;;;17.66;71.39;98391.31;260840;1090;22934;-70
2021/08/04 21:31:00;;;;;;;5.85;4.80;;;;;;;17.60;71.74;98388.84;260844;1090;22937;-70
2021/08/04 21:36:25;;;;;;;5.90;4.60;;;;;;;17.59;71.91;98383.77;260813;1090;22785;-70
2021/08/04 21:41:49;;;;;;;6.25;4.90;;;;;;;17.56;72.06;98389.88;260867;1090;24058;-69
2021/08/04 21:48:12;;;;;;;;;;;;;;;;;;;;;
2021/08/04 21:54:08;;;;;;;10.10;5.20;;;;;;;17.44;72.38;98375.22;260743;1090;22809;-69
2021/08/04 21:59:34;;;;;;;5.65;4.60;;;;;;;17.43;72.48;98378.28;260885;1090;22834;-69
2021/08/04 22:04:57;;;;;;;9.00;5.95;;;;;;;17.38;72.56;98375.83;260916;1090;22837;-70
2021/08/04 22:10:24;;;;;;;6.50;5.20;;;;;;;17.33;73.00;98370.65;261018;1090;22990;-70
2021/08/04 22:15:51;;;;;;;6.67;4.87;;;;;;;17.27;73.07;98361.98;260847;1090;25728;-69
2021/08/04 22:21:14;;;;;;;8.35;5.20;;;;;;;17.22;73.67;98354.09;260834;1088;23583;-68
2021/08/04 22:26:38;;;;;;;7.60;5.60;;;;;;;17.16;73.52;98353.55;260841;1090;22803;-70
2021/08/04 22:32:05;;;;;;;7.70;5.40;;;;;;;17.09;73.56;98345.22;261046;1088;26242;-70
2021/08/04 22:37:53;;;;;;;8.23;4.97;;;;;;;17.04;73.98;98337.33;260825;1090;22841;-69
2021/08/04 22:43:16;;;;;;;7.07;5.13;;;;;;;16.99;74.45;98334.88;260843;1090;22805;-70
2021/08/04 22:48:41;;;;;;;8.50;5.40;;;;;;;16.96;74.27;98332.84;260908;1090;22940;-70
2021/08/04 22:54:18;;;;;;;8.40;5.90;;;;;;;16.91;74.30;98326.56;260958;1090;22809;-70
2021/08/04 22:59:57;;;;;;;6.95;5.00;;;;;;;16.92;74.54;98319.22;260959;1089;22841;-70
2021/08/04 23:05:02;;;;;;;5.80;4.80;;;;;;;16.91;74.75;98315.73;261090;1089;22834;-70
2021/08/04 23:10:07;;;;;;;7.90;5.15;;;;;;;16.92;74.79;98317.30;261491;1090;22787;-69
2021/08/04 23:15:15;;;;;;;9.00;5.90;;;;;;;16.97;74.86;98305.47;261837;1090;23466;-69
2021/08/04 23:20:18;;;;;;;8.05;5.55;;;;;;;17.03;75.02;98298.67;261760;1090;24538;-69
2021/08/04 23:25:24;;;;;;;9.67;5.47;;;;;;;17.03;74.78;98295.19;260935;1089;22933;-70
2021/08/04 23:30:33;;;;;;;7.20;5.40;;;;;;;16.94;74.57;98289.89;261775;1090;22800;-70
2021/08/04 23:35:37;;;;;;;6.33;5.40;;;;;;;16.91;74.72;98288.69;261724;1090;25954;-70
2021/08/04 23:40:50;;;;;;;7.13;5.60;;;;;;;16.93;74.85;98281.00;261872;1089;25880;-71
2021/08/04 23:45:54;;;;;;;7.25;5.90;;;;;;;16.96;75.00;98270.61;261775;1090;22869;-69
2021/08/04 23:50:58;;;;;;;8.45;5.45;;;;;;;16.97;75.06;98266.78;260803;1089;22931;-69
2021/08/04 23:56:01;;;;;;;7.90;5.80;;;;;;;16.97;75.19;98264.08;260927;1090;22833;-69
